sensor_id;sensor_type;location;lat;lon;timestamp;temperature;humidity
64198;SHT31;50512;53.666;9.700;2024-01-25T00:00:57;6.64;94.78
64198;SHT31;50512;53.666;9.700;2024-01-25T00:03:25;6.61;94.90
64198;SHT31;50512;53.666;9.700;2024-01-25T00:05:51;6.58;95.05
64198;SHT31;50512;53.666;9.700;2024-01-25T00:08:18;6.56;95.22
64198;SHT31;50512;53.666;9.700;2024-01-25T00:10:44;6.51;95.35
64198;SHT31;50512;53.666;9.700;2024-01-25T00:13:10;6.50;95.36
64198;SHT31;50512;53.666;9.700;2024-01-25T00:15:37;6.56;95.24
64198;SHT31;50512;53.666;9.700;2024-01-25T00:18:04;6.54;95.25
64198;SHT31;50512;53.666;9.700;2024-01-25T00:20:31;6.51;95.31
64198;SHT31;50512;53.666;9.700;2024-01-25T00:22:58;6.58;95.19
64198;SHT31;50512;53.666;9.700;2024-01-25T00:25:24;6.57;95.15
64198;SHT31;50512;53.666;9.700;2024-01-25T00:27:51;6.57;95.14
64198;SHT31;50512;53.666;9.700;2024-01-25T00:30:18;6.57;95.05
64198;SHT31;50512;53.666;9.700;2024-01-25T00:32:44;6.64;94.94
64198;SHT31;50512;53.666;9.700;2024-01-25T00:35:12;6.64;95.00
64198;SHT31;50512;53.666;9.700;2024-01-25T00:37:41;6.58;94.98
64198;SHT31;50512;53.666;9.700;2024-01-25T00:40:08;6.58;94.96
64198;SHT31;50512;53.666;9.700;2024-01-25T00:42:41;6.60;94.89
64198;SHT31;50512;53.666;9.700;2024-01-25T00:45:08;6.57;95.13
64198;SHT31;50512;53.666;9.700;2024-01-25T00:47:35;6.57;95.07
64198;SHT31;50512;53.666;9.700;2024-01-25T00:50:02;6.56;95.14
64198;SHT31;50512;53.666;9.700;2024-01-25T00:52:29;6.53;95.14
64198;SHT31;50512;53.666;9.700;2024-01-25T00:54:58;6.46;95.46
64198;SHT31;50512;53.666;9.700;2024-01-25T00:57:24;6.48;95.39
64198;SHT31;50512;53.666;9.700;2024-01-25T00:59:51;6.50;95.30
64198;SHT31;50512;53.666;9.700;2024-01-25T01:02:20;6.44;95.46
64198;SHT31;50512;53.666;9.700;2024-01-25T01:04:48;6.50;95.37
64198;SHT31;50512;53.666;9.700;2024-01-25T01:07:15;6.47;95.34
64198;SHT31;50512;53.666;9.700;2024-01-25T01:09:41;7.73;96.60
64198;SHT31;50512;53.666;9.700;2024-01-25T01:12:09;8.43;89.68
64198;SHT31;50512;53.666;9.700;2024-01-25T01:14:36;7.77;89.43
64198;SHT31;50512;53.666;9.700;2024-01-25T01:17:02;7.05;92.24
64198;SHT31;50512;53.666;9.700;2024-01-25T01:19:29;6.77;93.66
64198;SHT31;50512;53.666;9.700;2024-01-25T01:21:55;6.54;94.39
64198;SHT31;50512;53.666;9.700;2024-01-25T01:24:22;6.50;94.84
64198;SHT31;50512;53.666;9.700;2024-01-25T01:26:48;6.50;94.82
64198;SHT31;50512;53.666;9.700;2024-01-25T01:29:17;6.48;94.84
64198;SHT31;50512;53.666;9.700;2024-01-25T01:31:44;6.43;95.11
64198;SHT31;50512;53.666;9.700;2024-01-25T01:34:10;6.43;95.13
64198;SHT31;50512;53.666;9.700;2024-01-25T01:36:38;6.41;95.18
64198;SHT31;50512;53.666;9.700;2024-01-25T01:39:04;6.40;95.26
64198;SHT31;50512;53.666;9.700;2024-01-25T01:41:31;6.37;95.22
64198;SHT31;50512;53.666;9.700;2024-01-25T01:43:58;6.37;95.38
64198;SHT31;50512;53.666;9.700;2024-01-25T01:46:32;6.36;95.52
64198;SHT31;50512;53.666;9.700;2024-01-25T01:48:59;6.37;95.47
64198;SHT31;50512;53.666;9.700;2024-01-25T01:51:25;6.37;95.46
64198;SHT31;50512;53.666;9.700;2024-01-25T01:53:53;6.36;95.52
64198;SHT31;50512;53.666;9.700;2024-01-25T01:56:20;6.32;95.74
64198;SHT31;50512;53.666;9.700;2024-01-25T01:58:47;6.37;95.76
64198;SHT31;50512;53.666;9.700;2024-01-25T02:01:14;6.34;95.79
64198;SHT31;50512;53.666;9.700;2024-01-25T02:03:42;6.36;95.94
64198;SHT31;50512;53.666;9.700;2024-01-25T02:06:08;6.37;95.89
64198;SHT31;50512;53.666;9.700;2024-01-25T02:08:35;6.37;95.92
64198;SHT31;50512;53.666;9.700;2024-01-25T02:11:02;6.36;96.01
64198;SHT31;50512;53.666;9.700;2024-01-25T02:13:28;6.40;95.99
64198;SHT31;50512;53.666;9.700;2024-01-25T02:15:55;6.43;96.06
64198;SHT31;50512;53.666;9.700;2024-01-25T02:18:22;6.43;95.98
64198;SHT31;50512;53.666;9.700;2024-01-25T02:20:49;6.50;95.74
64198;SHT31;50512;53.666;9.700;2024-01-25T02:23:17;6.47;95.79
64198;SHT31;50512;53.666;9.700;2024-01-25T02:25:44;6.47;95.86
64198;SHT31;50512;53.666;9.700;2024-01-25T02:28:10;6.50;95.68
64198;SHT31;50512;53.666;9.700;2024-01-25T02:30:36;6.48;95.84
64198;SHT31;50512;53.666;9.700;2024-01-25T02:33:03;6.51;95.72
64198;SHT31;50512;53.666;9.700;2024-01-25T02:35:29;6.51;95.66
64198;SHT31;50512;53.666;9.700;2024-01-25T02:37:56;6.46;96.03
64198;SHT31;50512;53.666;9.700;2024-01-25T02:40:24;6.43;96.04
64198;SHT31;50512;53.666;9.700;2024-01-25T02:42:50;6.43;96.06
64198;SHT31;50512;53.666;9.700;2024-01-25T02:45:17;6.47;96.07
64198;SHT31;50512;53.666;9.700;2024-01-25T02:47:43;6.44;95.97
64198;SHT31;50512;53.666;9.700;2024-01-25T02:50:10;6.40;96.46
64198;SHT31;50512;53.666;9.700;2024-01-25T02:52:36;6.37;96.64
64198;SHT31;50512;53.666;9.700;2024-01-25T02:55:03;6.50;96.45
64198;SHT31;50512;53.666;9.700;2024-01-25T02:57:31;6.53;96.48
64198;SHT31;50512;53.666;9.700;2024-01-25T02:59:57;6.56;96.24
64198;SHT31;50512;53.666;9.700;2024-01-25T03:02:24;6.58;96.08
64198;SHT31;50512;53.666;9.700;2024-01-25T03:04:51;6.57;95.96
64198;SHT31;50512;53.666;9.700;2024-01-25T03:07:17;6.54;95.98
64198;SHT31;50512;53.666;9.700;2024-01-25T03:09:43;6.51;96.14
64198;SHT31;50512;53.666;9.700;2024-01-25T03:12:10;6.53;96.33
64198;SHT31;50512;53.666;9.700;2024-01-25T03:14:38;6.56;96.25
64198;SHT31;50512;53.666;9.700;2024-01-25T03:17:04;6.58;95.99
64198;SHT31;50512;53.666;9.700;2024-01-25T03:19:31;6.63;95.87
64198;SHT31;50512;53.666;9.700;2024-01-25T03:21:57;6.61;95.85
64198;SHT31;50512;53.666;9.700;2024-01-25T03:24:23;6.63;95.87
64198;SHT31;50512;53.666;9.700;2024-01-25T03:26:50;6.58;96.05
64198;SHT31;50512;53.666;9.700;2024-01-25T03:29:16;6.60;96.04
64198;SHT31;50512;53.666;9.700;2024-01-25T03:31:44;6.60;96.04
64198;SHT31;50512;53.666;9.700;2024-01-25T03:34:11;6.63;96.01
64198;SHT31;50512;53.666;9.700;2024-01-25T03:36:37;6.64;96.08
64198;SHT31;50512;53.666;9.700;2024-01-25T03:39:04;6.66;96.18
64198;SHT31;50512;53.666;9.700;2024-01-25T03:41:31;6.66;96.15
64198;SHT31;50512;53.666;9.700;2024-01-25T03:43:57;6.68;96.13
64198;SHT31;50512;53.666;9.700;2024-01-25T03:46:24;6.68;96.24
64198;SHT31;50512;53.666;9.700;2024-01-25T03:48:51;6.73;95.93
64198;SHT31;50512;53.666;9.700;2024-01-25T03:51:19;6.74;96.06
64198;SHT31;50512;53.666;9.700;2024-01-25T03:53:46;6.73;96.11
64198;SHT31;50512;53.666;9.700;2024-01-25T03:56:13;6.71;96.17
64198;SHT31;50512;53.666;9.700;2024-01-25T03:58:42;6.75;96.21
64198;SHT31;50512;53.666;9.700;2024-01-25T04:01:08;6.75;96.04
64198;SHT31;50512;53.666;9.700;2024-01-25T04:03:35;6.77;95.97
64198;SHT31;50512;53.666;9.700;2024-01-25T04:06:03;6.80;96.03
64198;SHT31;50512;53.666;9.700;2024-01-25T04:08:30;6.75;95.99
64198;SHT31;50512;53.666;9.700;2024-01-25T04:10:56;6.71;96.11
64198;SHT31;50512;53.666;9.700;2024-01-25T04:13:23;6.68;96.11
64198;SHT31;50512;53.666;9.700;2024-01-25T04:15:49;6.64;96.24
64198;SHT31;50512;53.666;9.700;2024-01-25T04:18:16;6.60;96.38
64198;SHT31;50512;53.666;9.700;2024-01-25T04:20:43;6.56;96.45
64198;SHT31;50512;53.666;9.700;2024-01-25T04:23:11;6.50;96.61
64198;SHT31;50512;53.666;9.700;2024-01-25T04:25:38;6.48;96.74
64198;SHT31;50512;53.666;9.700;2024-01-25T04:28:04;6.46;96.75
64198;SHT31;50512;53.666;9.700;2024-01-25T04:30:31;6.44;96.86
64198;SHT31;50512;53.666;9.700;2024-01-25T04:32:58;6.46;96.72
64198;SHT31;50512;53.666;9.700;2024-01-25T04:35:24;6.47;96.68
64198;SHT31;50512;53.666;9.700;2024-01-25T04:37:51;6.44;96.66
64198;SHT31;50512;53.666;9.700;2024-01-25T04:40:18;6.43;96.65
64198;SHT31;50512;53.666;9.700;2024-01-25T04:42:45;6.39;96.81
64198;SHT31;50512;53.666;9.700;2024-01-25T04:45:11;6.37;96.86
64198;SHT31;50512;53.666;9.700;2024-01-25T04:47:38;6.34;96.86
64198;SHT31;50512;53.666;9.700;2024-01-25T04:50:05;6.29;97.18
64198;SHT31;50512;53.666;9.700;2024-01-25T04:52:32;6.28;97.09
64198;SHT31;50512;53.666;9.700;2024-01-25T04:54:58;6.30;97.10
64198;SHT31;50512;53.666;9.700;2024-01-25T04:57:26;6.23;97.19
64198;SHT31;50512;53.666;9.700;2024-01-25T04:59:52;6.23;97.30
64198;SHT31;50512;53.666;9.700;2024-01-25T05:02:19;6.25;97.20
64198;SHT31;50512;53.666;9.700;2024-01-25T05:04:45;6.20;97.25
64198;SHT31;50512;53.666;9.700;2024-01-25T05:07:12;6.18;97.54
64198;SHT31;50512;53.666;9.700;2024-01-25T05:09:38;6.19;97.58
64198;SHT31;50512;53.666;9.700;2024-01-25T05:12:05;6.18;97.56
64198;SHT31;50512;53.666;9.700;2024-01-25T05:14:33;6.18;97.62
64198;SHT31;50512;53.666;9.700;2024-01-25T05:17:00;6.15;97.76
64198;SHT31;50512;53.666;9.700;2024-01-25T05:19:26;6.12;97.85
64198;SHT31;50512;53.666;9.700;2024-01-25T05:21:53;6.12;98.00
64198;SHT31;50512;53.666;9.700;2024-01-25T05:24:19;6.16;98.09
64198;SHT31;50512;53.666;9.700;2024-01-25T05:26:45;6.16;97.85
64198;SHT31;50512;53.666;9.700;2024-01-25T05:29:12;6.15;98.01
64198;SHT31;50512;53.666;9.700;2024-01-25T05:31:40;6.18;97.94
64198;SHT31;50512;53.666;9.700;2024-01-25T05:34:06;6.16;97.99
64198;SHT31;50512;53.666;9.700;2024-01-25T05:36:33;6.12;98.00
64198;SHT31;50512;53.666;9.700;2024-01-25T05:38:59;6.09;98.18
64198;SHT31;50512;53.666;9.700;2024-01-25T05:41:25;6.03;98.38
64198;SHT31;50512;53.666;9.700;2024-01-25T05:43:52;6.02;98.38
64198;SHT31;50512;53.666;9.700;2024-01-25T05:46:19;6.03;98.33
64198;SHT31;50512;53.666;9.700;2024-01-25T05:48:47;6.06;98.33
64198;SHT31;50512;53.666;9.700;2024-01-25T05:51:14;6.05;98.34
64198;SHT31;50512;53.666;9.700;2024-01-25T05:53:40;6.03;98.33
64198;SHT31;50512;53.666;9.700;2024-01-25T05:56:07;6.03;98.29
64198;SHT31;50512;53.666;9.700;2024-01-25T05:58:33;6.05;98.36
64198;SHT31;50512;53.666;9.700;2024-01-25T06:00:59;6.01;98.47
64198;SHT31;50512;53.666;9.700;2024-01-25T06:03:26;5.99;98.45
64198;SHT31;50512;53.666;9.700;2024-01-25T06:05:54;6.01;98.53
64198;SHT31;50512;53.666;9.700;2024-01-25T06:08:21;6.02;98.55
64198;SHT31;50512;53.666;9.700;2024-01-25T06:10:47;6.03;98.46
64198;SHT31;50512;53.666;9.700;2024-01-25T06:13:14;5.98;98.56
64198;SHT31;50512;53.666;9.700;2024-01-25T06:15:41;5.95;98.57
64198;SHT31;50512;53.666;9.700;2024-01-25T06:18:07;5.92;98.70
64198;SHT31;50512;53.666;9.700;2024-01-25T06:20:33;5.94;98.72
64198;SHT31;50512;53.666;9.700;2024-01-25T06:23:01;5.87;98.79
64198;SHT31;50512;53.666;9.700;2024-01-25T06:25:28;5.85;98.84
64198;SHT31;50512;53.666;9.700;2024-01-25T06:27:56;5.87;98.95
64198;SHT31;50512;53.666;9.700;2024-01-25T06:30:23;5.87;98.84
64198;SHT31;50512;53.666;9.700;2024-01-25T06:32:50;5.81;98.98
64198;SHT31;50512;53.666;9.700;2024-01-25T06:35:16;5.79;99.09
64198;SHT31;50512;53.666;9.700;2024-01-25T06:37:43;5.75;99.25
64198;SHT31;50512;53.666;9.700;2024-01-25T06:40:11;5.73;99.32
64198;SHT31;50512;53.666;9.700;2024-01-25T06:42:37;5.74;99.32
64198;SHT31;50512;53.666;9.700;2024-01-25T06:45:04;5.75;99.34
64198;SHT31;50512;53.666;9.700;2024-01-25T06:47:31;5.71;99.40
64198;SHT31;50512;53.666;9.700;2024-01-25T06:49:57;5.68;99.37
64198;SHT31;50512;53.666;9.700;2024-01-25T06:52:24;5.68;99.53
64198;SHT31;50512;53.666;9.700;2024-01-25T06:54:50;5.65;99.60
64198;SHT31;50512;53.666;9.700;2024-01-25T06:57:18;5.64;99.75
64198;SHT31;50512;53.666;9.700;2024-01-25T06:59:44;5.67;99.78
64198;SHT31;50512;53.666;9.700;2024-01-25T07:02:11;5.70;99.68
64198;SHT31;50512;53.666;9.700;2024-01-25T07:04:37;5.73;99.84
64198;SHT31;50512;53.666;9.700;2024-01-25T07:07:05;5.74;99.83
64198;SHT31;50512;53.666;9.700;2024-01-25T07:09:32;5.81;99.92
64198;SHT31;50512;53.666;9.700;2024-01-25T07:11:58;5.85;99.83
64198;SHT31;50512;53.666;9.700;2024-01-25T07:14:26;5.98;99.50
64198;SHT31;50512;53.666;9.700;2024-01-25T07:16:53;6.01;99.29
64198;SHT31;50512;53.666;9.700;2024-01-25T07:19:19;6.08;99.22
64198;SHT31;50512;53.666;9.700;2024-01-25T07:21:46;6.09;99.09
64198;SHT31;50512;53.666;9.700;2024-01-25T07:24:12;6.13;99.16
64198;SHT31;50512;53.666;9.700;2024-01-25T07:26:38;6.18;98.89
64198;SHT31;50512;53.666;9.700;2024-01-25T07:29:05;6.19;98.91
64198;SHT31;50512;53.666;9.700;2024-01-25T07:31:33;6.18;98.73
64198;SHT31;50512;53.666;9.700;2024-01-25T07:33:59;6.19;98.66
64198;SHT31;50512;53.666;9.700;2024-01-25T07:36:25;6.20;98.65
64198;SHT31;50512;53.666;9.700;2024-01-25T07:38:52;6.18;98.68
64198;SHT31;50512;53.666;9.700;2024-01-25T07:41:19;6.20;98.72
64198;SHT31;50512;53.666;9.700;2024-01-25T07:43:45;6.22;98.69
64198;SHT31;50512;53.666;9.700;2024-01-25T07:46:11;6.23;98.66
64198;SHT31;50512;53.666;9.700;2024-01-25T07:48:41;6.25;98.66
64198;SHT31;50512;53.666;9.700;2024-01-25T07:51:10;6.23;98.79
64198;SHT31;50512;53.666;9.700;2024-01-25T07:53:37;6.26;98.85
64198;SHT31;50512;53.666;9.700;2024-01-25T07:56:06;6.28;98.79
64198;SHT31;50512;53.666;9.700;2024-01-25T07:58:32;6.26;98.82
64198;SHT31;50512;53.666;9.700;2024-01-25T08:00:59;6.30;98.80
64198;SHT31;50512;53.666;9.700;2024-01-25T08:03:25;6.32;98.75
64198;SHT31;50512;53.666;9.700;2024-01-25T08:05:53;6.33;98.82
64198;SHT31;50512;53.666;9.700;2024-01-25T08:08:19;6.30;98.74
64198;SHT31;50512;53.666;9.700;2024-01-25T08:10:46;6.34;98.81
64198;SHT31;50512;53.666;9.700;2024-01-25T08:13:12;6.37;98.64
64198;SHT31;50512;53.666;9.700;2024-01-25T08:15:39;6.36;98.73
64198;SHT31;50512;53.666;9.700;2024-01-25T08:18:06;6.39;98.66
64198;SHT31;50512;53.666;9.700;2024-01-25T08:20:32;6.37;98.63
64198;SHT31;50512;53.666;9.700;2024-01-25T08:23:00;6.39;98.70
64198;SHT31;50512;53.666;9.700;2024-01-25T08:25:27;6.41;98.76
64198;SHT31;50512;53.666;9.700;2024-01-25T08:27:53;6.43;98.80
64198;SHT31;50512;53.666;9.700;2024-01-25T08:30:19;6.43;98.75
64198;SHT31;50512;53.666;9.700;2024-01-25T08:32:46;6.48;98.75
64198;SHT31;50512;53.666;9.700;2024-01-25T08:35:12;6.53;98.58
64198;SHT31;50512;53.666;9.700;2024-01-25T08:37:39;6.53;98.59
64198;SHT31;50512;53.666;9.700;2024-01-25T08:40:08;6.54;98.54
64198;SHT31;50512;53.666;9.700;2024-01-25T08:42:34;6.53;98.52
64198;SHT31;50512;53.666;9.700;2024-01-25T08:45:01;6.57;98.59
64198;SHT31;50512;53.666;9.700;2024-01-25T08:47:28;6.56;98.46
64198;SHT31;50512;53.666;9.700;2024-01-25T08:49:56;6.58;98.54
64198;SHT31;50512;53.666;9.700;2024-01-25T08:52:23;6.56;98.59
64198;SHT31;50512;53.666;9.700;2024-01-25T08:54:49;6.60;98.25
64198;SHT31;50512;53.666;9.700;2024-01-25T08:57:17;6.56;98.44
64198;SHT31;50512;53.666;9.700;2024-01-25T08:59:44;6.57;98.42
64198;SHT31;50512;53.666;9.700;2024-01-25T09:02:10;6.58;98.66
64198;SHT31;50512;53.666;9.700;2024-01-25T09:04:36;6.61;98.43
64198;SHT31;50512;53.666;9.700;2024-01-25T09:07:03;6.64;98.39
64198;SHT31;50512;53.666;9.700;2024-01-25T09:09:30;6.61;98.55
64198;SHT31;50512;53.666;9.700;2024-01-25T09:11:56;6.64;98.45
64198;SHT31;50512;53.666;9.700;2024-01-25T09:14:24;6.61;98.35
64198;SHT31;50512;53.666;9.700;2024-01-25T09:16:50;6.67;98.26
64198;SHT31;50512;53.666;9.700;2024-01-25T09:19:17;6.71;98.26
64198;SHT31;50512;53.666;9.700;2024-01-25T09:21:43;6.71;98.30
64198;SHT31;50512;53.666;9.700;2024-01-25T09:24:10;6.77;98.09
64198;SHT31;50512;53.666;9.700;2024-01-25T09:26:36;6.74;98.27
64198;SHT31;50512;53.666;9.700;2024-01-25T09:29:03;6.77;98.24
64198;SHT31;50512;53.666;9.700;2024-01-25T09:31:31;6.75;98.14
64198;SHT31;50512;53.666;9.700;2024-01-25T09:33:57;6.78;97.93
64198;SHT31;50512;53.666;9.700;2024-01-25T09:36:24;7.01;98.65
64198;SHT31;50512;53.666;9.700;2024-01-25T09:38:50;6.89;97.49
64198;SHT31;50512;53.666;9.700;2024-01-25T09:41:17;6.78;97.93
64198;SHT31;50512;53.666;9.700;2024-01-25T09:43:43;6.83;97.95
64198;SHT31;50512;53.666;9.700;2024-01-25T09:46:13;6.88;97.92
64198;SHT31;50512;53.666;9.700;2024-01-25T09:48:42;6.85;97.86
64198;SHT31;50512;53.666;9.700;2024-01-25T09:51:11;6.91;97.68
64198;SHT31;50512;53.666;9.700;2024-01-25T09:53:39;6.91;97.57
64198;SHT31;50512;53.666;9.700;2024-01-25T09:56:07;6.95;97.56
64198;SHT31;50512;53.666;9.700;2024-01-25T09:58:37;6.92;97.78
64198;SHT31;50512;53.666;9.700;2024-01-25T10:01:07;6.92;97.74
64198;SHT31;50512;53.666;9.700;2024-01-25T10:03:34;6.98;97.68
64198;SHT31;50512;53.666;9.700;2024-01-25T10:06:02;6.99;97.63
64198;SHT31;50512;53.666;9.700;2024-01-25T10:08:29;6.99;97.79
64198;SHT31;50512;53.666;9.700;2024-01-25T10:10:55;6.99;97.72
64198;SHT31;50512;53.666;9.700;2024-01-25T10:13:22;7.03;97.74
64198;SHT31;50512;53.666;9.700;2024-01-25T10:15:48;7.05;97.51
64198;SHT31;50512;53.666;9.700;2024-01-25T10:18:15;7.09;97.54
64198;SHT31;50512;53.666;9.700;2024-01-25T10:20:42;7.13;97.69
64198;SHT31;50512;53.666;9.700;2024-01-25T10:23:10;7.16;97.30
64198;SHT31;50512;53.666;9.700;2024-01-25T10:25:37;7.22;97.26
64198;SHT31;50512;53.666;9.700;2024-01-25T10:28:04;7.23;96.89
64198;SHT31;50512;53.666;9.700;2024-01-25T10:30:32;7.26;96.82
64198;SHT31;50512;53.666;9.700;2024-01-25T10:32:59;7.32;96.55
64198;SHT31;50512;53.666;9.700;2024-01-25T10:35:26;7.29;96.56
64198;SHT31;50512;53.666;9.700;2024-01-25T10:37:53;7.30;96.50
64198;SHT31;50512;53.666;9.700;2024-01-25T10:40:21;7.37;96.57
64198;SHT31;50512;53.666;9.700;2024-01-25T10:42:48;7.32;96.46
64198;SHT31;50512;53.666;9.700;2024-01-25T10:45:15;7.30;96.42
64198;SHT31;50512;53.666;9.700;2024-01-25T10:47:42;7.32;96.63
64198;SHT31;50512;53.666;9.700;2024-01-25T10:50:11;7.32;96.51
64198;SHT31;50512;53.666;9.700;2024-01-25T10:52:39;7.34;96.33
64198;SHT31;50512;53.666;9.700;2024-01-25T10:55:06;7.36;96.24
64198;SHT31;50512;53.666;9.700;2024-01-25T10:57:41;7.36;96.29
64198;SHT31;50512;53.666;9.700;2024-01-25T11:00:10;7.33;96.40
64198;SHT31;50512;53.666;9.700;2024-01-25T11:02:37;7.36;96.50
64198;SHT31;50512;53.666;9.700;2024-01-25T11:05:07;7.42;96.64
64198;SHT31;50512;53.666;9.700;2024-01-25T11:07:41;7.43;96.56
64198;SHT31;50512;53.666;9.700;2024-01-25T11:10:11;7.40;96.62
64198;SHT31;50512;53.666;9.700;2024-01-25T11:12:48;7.44;96.19
64198;SHT31;50512;53.666;9.700;2024-01-25T11:15:19;7.49;96.09
64198;SHT31;50512;53.666;9.700;2024-01-25T11:17:50;7.46;96.19
64198;SHT31;50512;53.666;9.700;2024-01-25T11:20:20;7.47;95.89
64198;SHT31;50512;53.666;9.700;2024-01-25T11:22:46;7.49;96.00
64198;SHT31;50512;53.666;9.700;2024-01-25T11:25:18;7.49;95.67
64198;SHT31;50512;53.666;9.700;2024-01-25T11:27:45;7.50;95.79
64198;SHT31;50512;53.666;9.700;2024-01-25T11:30:13;7.51;95.85
64198;SHT31;50512;53.666;9.700;2024-01-25T11:32:40;7.60;95.93
64198;SHT31;50512;53.666;9.700;2024-01-25T11:35:08;7.64;95.51
64198;SHT31;50512;53.666;9.700;2024-01-25T11:37:36;7.67;95.52
64198;SHT31;50512;53.666;9.700;2024-01-25T11:40:03;7.63;95.20
64198;SHT31;50512;53.666;9.700;2024-01-25T11:42:30;7.70;95.33
64198;SHT31;50512;53.666;9.700;2024-01-25T11:44:57;7.71;95.35
64198;SHT31;50512;53.666;9.700;2024-01-25T11:47:25;7.73;94.69
64198;SHT31;50512;53.666;9.700;2024-01-25T11:49:51;7.73;95.07
64198;SHT31;50512;53.666;9.700;2024-01-25T11:52:18;7.71;94.91
64198;SHT31;50512;53.666;9.700;2024-01-25T11:54:45;7.71;95.01
64198;SHT31;50512;53.666;9.700;2024-01-25T11:57:11;7.67;94.96
64198;SHT31;50512;53.666;9.700;2024-01-25T11:59:38;7.66;95.18
64198;SHT31;50512;53.666;9.700;2024-01-25T12:02:05;7.66;94.97
64198;SHT31;50512;53.666;9.700;2024-01-25T12:04:33;7.63;95.10
64198;SHT31;50512;53.666;9.700;2024-01-25T12:06:59;7.57;95.09
64198;SHT31;50512;53.666;9.700;2024-01-25T12:09:26;7.58;95.29
64198;SHT31;50512;53.666;9.700;2024-01-25T12:11:52;7.56;95.40
64198;SHT31;50512;53.666;9.700;2024-01-25T12:14:19;7.49;95.24
64198;SHT31;50512;53.666;9.700;2024-01-25T12:16:45;7.46;95.33
64198;SHT31;50512;53.666;9.700;2024-01-25T12:19:12;7.46;95.44
64198;SHT31;50512;53.666;9.700;2024-01-25T12:21:43;7.44;95.18
64198;SHT31;50512;53.666;9.700;2024-01-25T12:24:10;7.46;95.79
64198;SHT31;50512;53.666;9.700;2024-01-25T12:26:36;7.44;95.60
64198;SHT31;50512;53.666;9.700;2024-01-25T12:29:03;7.47;95.63
64198;SHT31;50512;53.666;9.700;2024-01-25T12:31:30;7.47;95.84
64198;SHT31;50512;53.666;9.700;2024-01-25T12:33:57;7.47;95.65
64198;SHT31;50512;53.666;9.700;2024-01-25T12:36:24;7.49;95.56
64198;SHT31;50512;53.666;9.700;2024-01-25T12:38:52;7.51;95.76
64198;SHT31;50512;53.666;9.700;2024-01-25T12:41:19;8.23;96.83
64198;SHT31;50512;53.666;9.700;2024-01-25T12:43:45;8.89;93.05
64198;SHT31;50512;53.666;9.700;2024-01-25T12:46:20;9.25;89.41
64198;SHT31;50512;53.666;9.700;2024-01-25T12:48:46;9.33;89.43
64198;SHT31;50512;53.666;9.700;2024-01-25T12:51:13;8.77;90.26
64198;SHT31;50512;53.666;9.700;2024-01-25T12:53:39;8.26;92.25
64198;SHT31;50512;53.666;9.700;2024-01-25T12:56:06;8.10;92.99
64198;SHT31;50512;53.666;9.700;2024-01-25T12:58:32;7.88;93.44
64198;SHT31;50512;53.666;9.700;2024-01-25T13:00:59;7.87;93.60
64198;SHT31;50512;53.666;9.700;2024-01-25T13:03:26;7.79;94.13
64198;SHT31;50512;53.666;9.700;2024-01-25T13:05:53;7.79;94.15
64198;SHT31;50512;53.666;9.700;2024-01-25T13:08:19;7.77;94.12
64198;SHT31;50512;53.666;9.700;2024-01-25T13:10:46;7.77;94.00
64198;SHT31;50512;53.666;9.700;2024-01-25T13:13:12;7.82;94.00
64198;SHT31;50512;53.666;9.700;2024-01-25T13:15:39;7.82;94.02
64198;SHT31;50512;53.666;9.700;2024-01-25T13:18:05;7.82;94.36
64198;SHT31;50512;53.666;9.700;2024-01-25T13:20:33;7.88;94.07
64198;SHT31;50512;53.666;9.700;2024-01-25T13:22:59;7.89;94.13
64198;SHT31;50512;53.666;9.700;2024-01-25T13:25:26;7.98;94.29
64198;SHT31;50512;53.666;9.700;2024-01-25T13:27:52;7.98;94.18
64198;SHT31;50512;53.666;9.700;2024-01-25T13:30:19;7.95;94.18
64198;SHT31;50512;53.666;9.700;2024-01-25T13:32:45;7.98;93.95
64198;SHT31;50512;53.666;9.700;2024-01-25T13:35:12;7.96;93.81
64198;SHT31;50512;53.666;9.700;2024-01-25T13:37:39;8.01;94.10
64198;SHT31;50512;53.666;9.700;2024-01-25T13:40:07;8.05;93.99
64198;SHT31;50512;53.666;9.700;2024-01-25T13:42:33;8.09;93.45
64198;SHT31;50512;53.666;9.700;2024-01-25T13:45:00;8.16;93.59
64198;SHT31;50512;53.666;9.700;2024-01-25T13:47:26;8.19;93.22
64198;SHT31;50512;53.666;9.700;2024-01-25T13:49:53;8.26;93.45
64198;SHT31;50512;53.666;9.700;2024-01-25T13:52:19;8.36;93.01
64198;SHT31;50512;53.666;9.700;2024-01-25T13:54:48;8.46;92.59
64198;SHT31;50512;53.666;9.700;2024-01-25T13:57:15;8.57;92.42
64198;SHT31;50512;53.666;9.700;2024-01-25T13:59:41;8.63;92.33
64198;SHT31;50512;53.666;9.700;2024-01-25T14:02:08;8.59;91.63
64198;SHT31;50512;53.666;9.700;2024-01-25T14:04:34;8.71;91.71
64198;SHT31;50512;53.666;9.700;2024-01-25T14:07:01;8.77;92.32
64198;SHT31;50512;53.666;9.700;2024-01-25T14:09:28;8.78;91.57
64198;SHT31;50512;53.666;9.700;2024-01-25T14:11:56;8.78;91.14
64198;SHT31;50512;53.666;9.700;2024-01-25T14:14:23;8.67;90.51
64198;SHT31;50512;53.666;9.700;2024-01-25T14:16:49;8.56;90.01
64198;SHT31;50512;53.666;9.700;2024-01-25T14:19:16;8.44;89.90
64198;SHT31;50512;53.666;9.700;2024-01-25T14:21:45;8.36;90.61
64198;SHT31;50512;53.666;9.700;2024-01-25T14:24:12;8.28;90.70
64198;SHT31;50512;53.666;9.700;2024-01-25T14:26:39;8.25;90.81
64198;SHT31;50512;53.666;9.700;2024-01-25T14:29:06;8.12;90.88
64198;SHT31;50512;53.666;9.700;2024-01-25T14:31:33;8.02;91.14
64198;SHT31;50512;53.666;9.700;2024-01-25T14:33:59;7.94;91.43
64198;SHT31;50512;53.666;9.700;2024-01-25T14:36:26;7.82;91.85
64198;SHT31;50512;53.666;9.700;2024-01-25T14:38:52;7.79;91.64
64198;SHT31;50512;53.666;9.700;2024-01-25T14:41:19;7.77;91.73
64198;SHT31;50512;53.666;9.700;2024-01-25T14:43:45;7.81;91.69
64198;SHT31;50512;53.666;9.700;2024-01-25T14:46:13;7.75;91.75
64198;SHT31;50512;53.666;9.700;2024-01-25T14:48:39;7.82;91.97
64198;SHT31;50512;53.666;9.700;2024-01-25T14:51:06;7.81;92.01
64198;SHT31;50512;53.666;9.700;2024-01-25T14:53:32;7.79;92.17
64198;SHT31;50512;53.666;9.700;2024-01-25T14:55:59;7.75;91.99
64198;SHT31;50512;53.666;9.700;2024-01-25T14:58:26;7.71;91.84
64198;SHT31;50512;53.666;9.700;2024-01-25T15:00:54;7.64;92.20
64198;SHT31;50512;53.666;9.700;2024-01-25T15:03:21;7.53;92.55
64198;SHT31;50512;53.666;9.700;2024-01-25T15:05:48;7.50;92.63
64198;SHT31;50512;53.666;9.700;2024-01-25T15:08:14;7.47;92.71
64198;SHT31;50512;53.666;9.700;2024-01-25T15:10:41;7.47;92.78
64198;SHT31;50512;53.666;9.700;2024-01-25T15:13:07;7.44;93.00
64198;SHT31;50512;53.666;9.700;2024-01-25T15:15:34;7.40;93.35
64198;SHT31;50512;53.666;9.700;2024-01-25T15:18:00;7.37;93.30
64198;SHT31;50512;53.666;9.700;2024-01-25T15:20:28;7.37;93.34
64198;SHT31;50512;53.666;9.700;2024-01-25T15:22:55;7.37;93.23
64198;SHT31;50512;53.666;9.700;2024-01-25T15:25:23;7.26;93.25
64198;SHT31;50512;53.666;9.700;2024-01-25T15:27:51;7.19;93.67
64198;SHT31;50512;53.666;9.700;2024-01-25T15:30:18;7.06;94.13
64198;SHT31;50512;53.666;9.700;2024-01-25T15:32:45;7.11;94.00
64198;SHT31;50512;53.666;9.700;2024-01-25T15:35:12;7.06;94.43
64198;SHT31;50512;53.666;9.700;2024-01-25T15:37:40;7.09;94.45
64198;SHT31;50512;53.666;9.700;2024-01-25T15:40:08;7.12;94.41
64198;SHT31;50512;53.666;9.700;2024-01-25T15:42:37;7.18;94.44